createdAt,value
2022-08-26T00:01:52.950Z,90.00
2022-08-26T00:04:21.520Z,90.30
2022-08-26T00:06:48.427Z,90.30
2022-08-26T00:09:16.030Z,90.20
2022-08-26T00:11:44.021Z,89.50
2022-08-26T00:14:13.368Z,89.60
2022-08-26T00:16:40.996Z,89.80
2022-08-26T00:19:14.164Z,90.20
2022-08-26T00:21:41.551Z,90.80
2022-08-26T00:24:08.354Z,90.70
2022-08-26T00:26:35.083Z,91.10
2022-08-26T00:29:02.151Z,91.00
2022-08-26T00:31:31.178Z,90.60
2022-08-26T00:33:58.882Z,90.90
2022-08-26T00:36:29.772Z,90.40
2022-08-26T00:38:57.778Z,90.50
2022-08-26T00:41:24.532Z,90.20
2022-08-26T00:43:51.612Z,90.10
2022-08-26T00:46:25.596Z,90.40
2022-08-26T00:48:58.143Z,91.10
2022-08-26T00:51:29.749Z,90.80
2022-08-26T00:54:01.982Z,91.20
2022-08-26T00:56:53.398Z,91.20
2022-08-26T00:59:21.441Z,91.10
2022-08-26T01:01:48.311Z,91.10
2022-08-26T01:04:19.408Z,91.50
2022-08-26T01:06:47.970Z,91.20
2022-08-26T01:09:15.999Z,90.60
2022-08-26T01:11:42.865Z,90.50
2022-08-26T01:14:12.300Z,90.50
2022-08-26T01:16:39.690Z,90.30
2022-08-26T01:19:30.789Z,90.60
2022-08-26T01:22:02.395Z,90.90
2022-08-26T01:24:30.787Z,91.00
2022-08-26T01:27:04.985Z,90.80
2022-08-26T01:29:33.678Z,90.60
2022-08-26T01:32:00.824Z,90.30
2022-08-26T01:34:37.419Z,90.40
2022-08-26T01:37:16.173Z,91.00
2022-08-26T01:39:45.098Z,91.30
2022-08-26T01:42:14.606Z,91.40
2022-08-26T01:44:51.990Z,91.20
2022-08-26T01:47:22.900Z,91.20
2022-08-26T01:49:54.148Z,91.00
2022-08-26T01:52:28.138Z,91.30
2022-08-26T01:54:57.310Z,91.10
2022-08-26T01:57:25.218Z,90.90
2022-08-26T01:59:55.349Z,90.80
2022-08-26T02:02:24.550Z,90.60
2022-08-26T02:04:57.258Z,90.60
2022-08-26T02:07:26.672Z,90.80
2022-08-26T02:09:54.727Z,91.30
2022-08-26T02:12:21.747Z,91.30
2022-08-26T02:14:53.765Z,91.00
2022-08-26T02:17:26.485Z,90.50
2022-08-26T02:19:53.651Z,90.70
2022-08-26T02:22:22.811Z,91.40
2022-08-26T02:25:12.272Z,90.90
2022-08-26T02:27:39.664Z,91.50
2022-08-26T02:30:09.793Z,91.30
2022-08-26T02:32:37.567Z,91.70
2022-08-26T02:35:08.094Z,92.20
2022-08-26T02:37:37.957Z,91.90
2022-08-26T02:40:07.554Z,92.10
2022-08-26T02:42:34.879Z,92.20
2022-08-26T02:45:02.065Z,92.00
2022-08-26T02:47:29.569Z,92.00
2022-08-26T02:49:59.871Z,91.80
2022-08-26T02:52:27.210Z,91.60
2022-08-26T02:54:55.063Z,91.30
2022-08-26T02:57:22.246Z,91.50
2022-08-26T02:59:49.609Z,91.50
2022-08-26T03:02:17.216Z,91.40
2022-08-26T03:04:57.883Z,91.50
2022-08-26T03:07:29.992Z,91.40
2022-08-26T03:09:57.877Z,91.20
2022-08-26T03:12:25.672Z,91.20
2022-08-26T03:14:52.902Z,91.40
2022-08-26T03:17:21.006Z,91.80
2022-08-26T03:19:49.834Z,91.90
2022-08-26T03:22:19.786Z,92.00
2022-08-26T03:24:47.343Z,91.60
2022-08-26T03:27:14.500Z,91.40
2022-08-26T03:30:00.180Z,91.60
2022-08-26T03:32:28.095Z,91.40
2022-08-26T03:34:56.470Z,91.60
2022-08-26T03:37:23.487Z,91.40
2022-08-26T03:39:50.467Z,91.40
2022-08-26T03:42:17.386Z,91.30
2022-08-26T03:44:48.843Z,91.40
2022-08-26T03:47:15.848Z,91.50
2022-08-26T03:49:42.654Z,91.50
2022-08-26T03:52:10.412Z,91.40
2022-08-26T03:54:38.505Z,91.50
2022-08-26T03:57:05.305Z,91.50
2022-08-26T03:59:32.699Z,91.40
2022-08-26T04:01:59.556Z,91.40
2022-08-26T04:04:26.485Z,91.30
2022-08-26T04:06:58.392Z,91.40
2022-08-26T04:09:27.413Z,91.40
2022-08-26T04:11:55.916Z,91.50
2022-08-26T04:14:25.667Z,91.40
2022-08-26T04:16:55.324Z,91.50
2022-08-26T04:19:24.624Z,91.40
2022-08-26T04:21:53.001Z,91.30
2022-08-26T04:24:22.589Z,91.40
2022-08-26T04:26:50.302Z,91.10
2022-08-26T04:29:20.467Z,90.90
2022-08-26T04:31:50.535Z,91.30
2022-08-26T04:34:28.904Z,91.70
2022-08-26T04:36:57.767Z,91.80
2022-08-26T04:39:25.236Z,92.40
2022-08-26T04:41:54.758Z,92.30
2022-08-26T04:44:21.982Z,92.80
2022-08-26T04:46:48.801Z,92.50
2022-08-26T04:49:15.853Z,92.70
2022-08-26T04:51:43.938Z,92.70
2022-08-26T04:54:11.036Z,92.80
2022-08-26T04:56:41.364Z,92.80
2022-08-26T04:59:16.509Z,92.80
2022-08-26T05:01:46.522Z,92.60
2022-08-26T05:04:13.902Z,92.60
2022-08-26T05:06:43.527Z,92.60
2022-08-26T05:09:10.451Z,92.40
2022-08-26T05:11:38.362Z,92.10
2022-08-26T05:14:06.030Z,92.10
2022-08-26T05:16:32.843Z,92.00
2022-08-26T05:18:59.647Z,91.90
2022-08-26T05:21:28.864Z,91.90
2022-08-26T05:23:55.857Z,91.60
2022-08-26T05:26:25.722Z,91.40
2022-08-26T05:28:54.895Z,91.50
2022-08-26T05:31:26.177Z,91.40
2022-08-26T05:33:53.922Z,91.30
2022-08-26T05:36:22.394Z,90.80
2022-08-26T05:38:49.833Z,90.40
2022-08-26T05:41:18.655Z,90.50
2022-08-26T05:43:46.210Z,90.50
2022-08-26T05:46:13.415Z,90.70
2022-08-26T05:48:44.446Z,90.40
2022-08-26T05:51:11.966Z,90.30
2022-08-26T05:53:43.926Z,89.90
2022-08-26T05:56:24.739Z,89.70
2022-08-26T05:58:51.858Z,89.60
2022-08-26T06:01:22.024Z,89.30
2022-08-26T06:03:52.698Z,89.50
2022-08-26T06:06:27.844Z,89.60
2022-08-26T06:08:57.384Z,89.80
2022-08-26T06:11:25.444Z,90.00
2022-08-26T06:13:53.695Z,90.10
2022-08-26T06:16:23.423Z,89.90
2022-08-26T06:18:52.146Z,90.00
2022-08-26T06:21:26.220Z,89.70
2022-08-26T06:24:14.331Z,89.80
2022-08-26T06:26:42.892Z,89.70
2022-08-26T06:29:09.732Z,90.00
2022-08-26T06:31:36.980Z,89.50
2022-08-26T06:34:10.561Z,89.80
2022-08-26T06:36:39.408Z,89.40
2022-08-26T06:39:10.223Z,88.80
2022-08-26T06:41:42.794Z,88.30
2022-08-26T06:44:11.758Z,88.20
2022-08-26T06:46:40.296Z,87.80
2022-08-26T06:49:07.625Z,87.90
2022-08-26T06:51:38.224Z,87.70
2022-08-26T06:54:06.214Z,87.40
2022-08-26T06:56:40.223Z,87.30
2022-08-26T06:59:08.218Z,87.00
2022-08-26T07:01:42.831Z,87.00
2022-08-26T07:04:11.416Z,86.90
2022-08-26T07:06:40.529Z,86.30
2022-08-26T07:09:09.789Z,86.00
2022-08-26T07:11:38.779Z,85.60
2022-08-26T07:14:07.143Z,85.40
2022-08-26T07:16:34.055Z,85.30
2022-08-26T07:19:03.593Z,85.50
2022-08-26T07:21:40.315Z,85.00
2022-08-26T07:24:08.374Z,84.60
2022-08-26T07:26:39.056Z,84.20
2022-08-26T07:29:12.392Z,84.30
2022-08-26T07:31:42.775Z,83.80
2022-08-26T07:34:10.813Z,83.70
2022-08-26T07:36:37.711Z,83.60
2022-08-26T07:39:05.905Z,83.60
2022-08-26T07:41:33.473Z,83.30
2022-08-26T07:44:00.970Z,82.80
2022-08-26T07:46:30.226Z,83.10
2022-08-26T07:48:58.221Z,83.00
2022-08-26T07:51:26.602Z,82.60
2022-08-26T07:53:55.526Z,82.50
2022-08-26T07:56:23.529Z,82.10
2022-08-26T07:58:52.173Z,81.30
2022-08-26T08:01:24.224Z,81.40
2022-08-26T08:03:53.279Z,81.50
2022-08-26T08:06:21.709Z,81.60
2022-08-26T08:08:50.901Z,81.60
2022-08-26T08:11:21.086Z,81.30
2022-08-26T08:13:49.793Z,80.50
2022-08-26T08:16:26.749Z,79.10
2022-08-26T08:18:56.429Z,79.50
2022-08-26T08:21:25.090Z,78.90
2022-08-26T08:23:55.872Z,79.10
2022-08-26T08:26:24.902Z,78.40
2022-08-26T08:28:54.966Z,78.70
2022-08-26T08:31:57.110Z,78.50
2022-08-26T08:34:18.450Z,78.60
2022-08-26T08:36:46.423Z,76.10
2022-08-26T08:39:14.134Z,75.50
2022-08-26T08:41:56.106Z,75.60
2022-08-26T08:47:03.409Z,75.80
2022-08-26T08:49:32.436Z,75.60
2022-08-26T08:52:09.388Z,75.20
2022-08-26T08:54:38.529Z,74.70
2022-08-26T08:57:17.170Z,74.30
2022-08-26T08:59:57.536Z,74.60
2022-08-26T09:02:35.703Z,74.60
2022-08-26T09:05:08.386Z,74.20
2022-08-26T09:07:59.367Z,73.90
2022-08-26T09:10:59.566Z,74.20
2022-08-26T09:13:27.469Z,73.30
2022-08-26T09:15:54.261Z,69.00
2022-08-26T09:18:46.009Z,69.50
2022-08-26T09:21:16.748Z,67.10
2022-08-26T09:23:49.555Z,67.70
2022-08-26T09:26:30.620Z,67.50
2022-08-26T09:29:04.035Z,67.50
2022-08-26T09:31:36.993Z,67.30
2022-08-26T09:34:20.886Z,67.70
2022-08-26T09:36:53.503Z,69.30
2022-08-26T09:39:23.891Z,68.90
2022-08-26T09:42:20.691Z,69.90
2022-08-26T09:44:53.634Z,70.70
2022-08-26T09:47:32.035Z,70.40
2022-08-26T09:50:20.045Z,70.80
2022-08-26T09:52:47.346Z,70.80
2022-08-26T09:55:22.293Z,71.30
2022-08-26T09:57:55.115Z,71.50
2022-08-26T10:00:30.686Z,70.90
2022-08-26T10:03:00.383Z,71.10
2022-08-26T10:05:31.707Z,71.50
2022-08-26T10:08:00.171Z,70.50
2022-08-26T10:10:39.412Z,70.40
2022-08-26T10:13:14.149Z,70.10
2022-08-26T10:15:56.697Z,70.10
2022-08-26T10:18:34.259Z,70.10
2022-08-26T10:21:09.656Z,70.00
2022-08-26T10:23:43.320Z,70.10
2022-08-26T10:26:38.685Z,70.70
2022-08-26T10:29:15.487Z,71.00
2022-08-26T10:31:51.606Z,69.20
2022-08-26T10:34:21.121Z,68.70
2022-08-26T10:37:16.844Z,68.50
2022-08-26T10:39:46.758Z,68.90
2022-08-26T10:42:25.507Z,69.00
2022-08-26T10:44:58.722Z,68.50
2022-08-26T10:47:34.879Z,69.10
2022-08-26T10:50:03.648Z,70.20
2022-08-26T10:52:51.907Z,71.00
2022-08-26T10:55:35.005Z,69.50
2022-08-26T10:58:06.507Z,70.10
2022-08-26T11:01:00.864Z,69.90
2022-08-26T11:03:34.524Z,66.80
2022-08-26T11:06:19.354Z,67.50
2022-08-26T11:08:48.947Z,66.20
2022-08-26T11:11:40.528Z,66.40
2022-08-26T11:14:18.965Z,66.60
2022-08-26T11:16:57.520Z,67.00
2022-08-26T11:19:56.800Z,66.20
2022-08-26T11:22:28.661Z,67.70
2022-08-26T11:24:55.525Z,67.20
2022-08-26T11:27:28.500Z,64.30
2022-08-26T11:29:59.175Z,63.50
2022-08-26T11:32:50.776Z,63.40
2022-08-26T11:35:17.740Z,61.60
2022-08-26T11:37:58.843Z,58.10
2022-08-26T11:40:38.348Z,59.60
2022-08-26T11:43:14.782Z,56.10
2022-08-26T11:45:59.634Z,55.80
2022-08-26T11:48:26.421Z,53.90
2022-08-26T11:50:54.211Z,52.70
2022-08-26T11:53:22.903Z,52.10
2022-08-26T11:55:52.369Z,52.80
2022-08-26T11:58:22.371Z,52.50
2022-08-26T12:00:57.989Z,52.60
2022-08-26T12:03:52.063Z,53.50
2022-08-26T12:06:32.606Z,50.70
2022-08-26T12:09:02.573Z,51.20
2022-08-26T12:11:36.592Z,52.70
2022-08-26T12:14:17.102Z,53.70
2022-08-26T12:16:43.979Z,54.80
2022-08-26T12:19:26.057Z,53.80
2022-08-26T12:22:13.864Z,51.00
2022-08-26T12:25:08.430Z,51.00
2022-08-26T12:27:41.613Z,52.20
2022-08-26T12:30:12.484Z,53.10
2022-08-26T12:32:57.199Z,56.60
2022-08-26T12:35:25.485Z,59.40
2022-08-26T12:37:54.166Z,61.30
2022-08-26T12:40:43.838Z,61.40
2022-08-26T12:43:14.560Z,61.40
2022-08-26T12:46:00.485Z,59.80
2022-08-26T12:48:30.435Z,60.30
2022-08-26T12:50:58.275Z,61.40
2022-08-26T12:53:28.132Z,62.90
2022-08-26T12:55:56.281Z,64.40
2022-08-26T12:58:23.352Z,65.40
2022-08-26T13:01:13.252Z,66.80
2022-08-26T13:03:43.900Z,68.00
2022-08-26T13:06:29.438Z,68.80
2022-08-26T13:09:24.542Z,67.20
2022-08-26T13:11:53.074Z,66.80
2022-08-26T13:14:24.291Z,67.30
2022-08-26T13:16:52.424Z,73.50
2022-08-26T13:19:21.870Z,77.00
2022-08-26T13:21:53.793Z,79.60
2022-08-26T13:24:33.105Z,81.90
2022-08-26T13:27:00.843Z,82.50
2022-08-26T13:29:27.631Z,83.70
2022-08-26T13:31:55.636Z,84.30
2022-08-26T13:34:23.657Z,83.30
2022-08-26T13:36:54.383Z,83.90
2022-08-26T13:39:21.651Z,84.40
2022-08-26T13:41:48.691Z,84.40
2022-08-26T13:44:15.827Z,85.80
2022-08-26T13:46:42.767Z,84.70
2022-08-26T13:49:09.991Z,86.20
2022-08-26T13:51:37.658Z,86.00
2022-08-26T13:54:05.525Z,86.90
2022-08-26T13:56:33.684Z,86.80
2022-08-26T13:59:01.303Z,87.50
2022-08-26T14:01:30.945Z,88.00
2022-08-26T14:03:58.009Z,88.20
2022-08-26T14:06:25.219Z,88.10
2022-08-26T14:08:52.172Z,88.00
2022-08-26T14:11:19.279Z,88.90
2022-08-26T14:13:46.053Z,89.00
2022-08-26T14:16:25.712Z,89.10
2022-08-26T14:18:52.901Z,89.40
2022-08-26T14:21:20.551Z,89.10
2022-08-26T14:23:47.504Z,88.70
2022-08-26T14:26:28.384Z,89.10
2022-08-26T14:28:58.762Z,89.30
2022-08-26T14:31:27.040Z,89.40
2022-08-26T14:33:56.523Z,89.20
2022-08-26T14:36:33.440Z,89.60
2022-08-26T14:39:07.404Z,90.10
2022-08-26T14:41:37.035Z,89.00
2022-08-26T14:44:10.865Z,88.80
2022-08-26T14:46:45.598Z,88.40
2022-08-26T14:49:13.315Z,89.30
2022-08-26T14:51:40.969Z,89.10
2022-08-26T14:54:13.054Z,89.10
2022-08-26T14:56:48.979Z,89.60
2022-08-26T14:59:21.750Z,90.40
2022-08-26T15:01:49.009Z,90.50
2022-08-26T15:04:16.225Z,90.30
2022-08-26T15:06:43.411Z,90.00
2022-08-26T15:09:10.940Z,90.10
2022-08-26T15:11:38.202Z,89.70
2022-08-26T15:14:05.383Z,89.20
2022-08-26T15:16:33.401Z,87.70
2022-08-26T15:19:04.082Z,87.20
2022-08-26T15:21:32.659Z,85.90
2022-08-26T15:24:00.645Z,85.60
2022-08-26T15:26:29.959Z,86.30
2022-08-26T15:29:00.856Z,85.00
2022-08-26T15:31:33.060Z,86.20
2022-08-26T15:34:14.525Z,85.90
2022-08-26T15:36:44.903Z,85.70
2022-08-26T15:39:12.505Z,86.50
2022-08-26T15:41:39.964Z,85.80
2022-08-26T15:44:07.914Z,84.30
2022-08-26T15:46:35.622Z,84.80
2022-08-26T15:49:04.459Z,84.20
2022-08-26T15:51:35.469Z,82.30
2022-08-26T15:54:13.356Z,81.60
2022-08-26T15:56:40.367Z,81.10
2022-08-26T15:59:08.046Z,79.60
2022-08-26T16:01:35.459Z,79.20
2022-08-26T16:04:03.526Z,79.90
2022-08-26T16:06:33.633Z,80.30
2022-08-26T16:09:00.935Z,80.10
2022-08-26T16:11:28.411Z,78.60
2022-08-26T16:13:55.285Z,77.80
2022-08-26T16:16:23.070Z,80.00
2022-08-26T16:18:50.003Z,80.30
2022-08-26T16:21:24.294Z,80.40
2022-08-26T16:23:52.300Z,80.80
2022-08-26T16:26:22.460Z,80.90
2022-08-26T16:28:49.291Z,81.60
2022-08-26T16:31:16.752Z,81.20
2022-08-26T16:33:44.262Z,82.20
2022-08-26T16:36:11.934Z,82.20
2022-08-26T16:38:39.545Z,83.00
2022-08-26T16:41:07.499Z,83.00
2022-08-26T16:43:35.231Z,82.80
2022-08-26T16:46:04.691Z,84.60
2022-08-26T16:48:31.649Z,83.80
2022-08-26T16:50:58.385Z,83.90
2022-08-26T16:53:25.151Z,83.40
2022-08-26T16:55:51.910Z,82.50
2022-08-26T16:58:21.925Z,84.30
2022-08-26T17:00:49.473Z,85.30
2022-08-26T17:03:16.891Z,84.70
2022-08-26T17:05:43.641Z,85.50
2022-08-26T17:08:10.688Z,86.10
2022-08-26T17:10:37.813Z,87.00
2022-08-26T17:13:04.997Z,87.70
2022-08-26T17:15:32.291Z,87.90
2022-08-26T17:17:59.123Z,88.00
2022-08-26T17:20:26.360Z,88.40
2022-08-26T17:22:55.133Z,87.90
2022-08-26T17:25:31.789Z,88.30
2022-08-26T17:27:59.244Z,88.60
2022-08-26T17:30:26.282Z,89.20
2022-08-26T17:32:54.305Z,89.20
2022-08-26T17:35:22.115Z,89.70
2022-08-26T17:37:49.302Z,90.00
2022-08-26T17:40:19.384Z,90.30
2022-08-26T17:42:46.718Z,90.60
2022-08-26T17:45:14.248Z,90.70
2022-08-26T17:47:41.385Z,90.70
2022-08-26T17:50:11.454Z,91.00
2022-08-26T17:52:40.008Z,91.10
2022-08-26T17:55:08.759Z,91.30
2022-08-26T17:57:40.576Z,91.60
2022-08-26T18:00:13.403Z,91.70
2022-08-26T18:02:40.827Z,91.80
2022-08-26T18:05:08.975Z,92.00
2022-08-26T18:07:43.650Z,92.20
2022-08-26T18:10:13.790Z,92.30
2022-08-26T18:12:41.500Z,92.60
2022-08-26T18:15:10.763Z,92.80
2022-08-26T18:17:41.548Z,92.80
2022-08-26T18:20:10.663Z,92.60
2022-08-26T18:22:37.648Z,92.80
2022-08-26T18:25:05.699Z,92.80
2022-08-26T18:27:32.771Z,92.90
2022-08-26T18:29:59.925Z,92.90
2022-08-26T18:32:26.871Z,93.00
2022-08-26T18:34:54.117Z,93.00
2022-08-26T18:37:20.903Z,92.80
2022-08-26T18:39:48.585Z,92.80
2022-08-26T18:42:15.424Z,92.70
2022-08-26T18:44:42.227Z,92.50
2022-08-26T18:47:09.138Z,92.50
2022-08-26T18:49:36.342Z,92.40
2022-08-26T18:52:04.234Z,92.40
2022-08-26T18:54:31.086Z,92.40
2022-08-26T18:56:58.223Z,92.60
2022-08-26T18:59:30.312Z,92.60
2022-08-26T19:01:58.098Z,92.50
2022-08-26T19:04:25.393Z,92.30
2022-08-26T19:06:53.161Z,92.40
2022-08-26T19:09:20.839Z,92.50
2022-08-26T19:11:49.678Z,92.30
2022-08-26T19:14:17.561Z,92.40
2022-08-26T19:16:46.954Z,92.50
2022-08-26T19:19:14.762Z,92.50
2022-08-26T19:21:41.853Z,92.50
2022-08-26T19:24:15.661Z,92.50
2022-08-26T19:26:45.111Z,92.60
2022-08-26T19:29:12.701Z,92.90
2022-08-26T19:31:39.515Z,93.20
2022-08-26T19:34:08.902Z,93.30
2022-08-26T19:36:36.085Z,93.00
2022-08-26T19:39:05.383Z,93.20
2022-08-26T19:41:38.001Z,93.10
2022-08-26T19:44:12.958Z,92.90
2022-08-26T19:46:40.183Z,92.80
2022-08-26T19:49:06.999Z,92.70
2022-08-26T19:51:36.325Z,92.60
2022-08-26T19:54:04.272Z,92.60
2022-08-26T19:56:31.633Z,92.70
2022-08-26T19:58:58.630Z,92.90
2022-08-26T20:01:26.207Z,93.00
2022-08-26T20:03:53.282Z,93.00
2022-08-26T20:06:20.516Z,92.90
2022-08-26T20:08:48.197Z,92.90
2022-08-26T20:11:18.917Z,93.00
2022-08-26T20:13:47.090Z,93.00
2022-08-26T20:16:15.055Z,93.00
2022-08-26T20:19:01.587Z,92.80
2022-08-26T20:21:31.513Z,93.00
2022-08-26T20:24:04.962Z,93.10
2022-08-26T20:26:32.870Z,93.20
2022-08-26T20:29:00.084Z,93.20
2022-08-26T20:31:27.549Z,93.50
2022-08-26T20:33:55.194Z,93.50
2022-08-26T20:36:23.760Z,93.70
2022-08-26T20:38:50.747Z,93.60
2022-08-26T20:41:18.184Z,93.50
2022-08-26T20:43:46.465Z,93.70
2022-08-26T20:46:18.256Z,93.60
2022-08-26T20:48:47.648Z,93.60
2022-08-26T20:51:14.942Z,93.60
2022-08-26T20:53:41.831Z,93.80
2022-08-26T20:56:10.051Z,93.80
2022-08-26T20:58:37.576Z,93.60
2022-08-26T21:01:07.968Z,93.70
2022-08-26T21:03:36.428Z,93.80
2022-08-26T21:06:03.872Z,93.80
2022-08-26T21:08:33.156Z,93.90
2022-08-26T21:11:00.939Z,93.70
2022-08-26T21:13:35.782Z,93.70
2022-08-26T21:16:10.281Z,93.70
2022-08-26T21:18:37.129Z,93.80
2022-08-26T21:21:08.483Z,93.80
2022-08-26T21:23:36.426Z,93.70
2022-08-26T21:26:09.613Z,93.80
2022-08-26T21:28:38.443Z,93.70
2022-08-26T21:31:08.813Z,93.60
2022-08-26T21:33:36.829Z,93.70
2022-08-26T21:36:04.549Z,93.70
2022-08-26T21:38:31.885Z,93.70
2022-08-26T21:41:14.245Z,93.70
2022-08-26T21:43:43.027Z,93.40
2022-08-26T21:46:16.617Z,93.20
2022-08-26T21:49:07.406Z,93.10
2022-08-26T21:51:36.871Z,93.20
2022-08-26T21:54:09.929Z,93.40
2022-08-26T21:56:40.067Z,93.50
2022-08-26T21:59:07.954Z,93.70
2022-08-26T22:01:35.387Z,93.60
2022-08-26T22:04:04.705Z,93.70
2022-08-26T22:06:33.968Z,93.80
2022-08-26T22:09:01.067Z,93.70
2022-08-26T22:11:28.580Z,93.40
2022-08-26T22:13:56.840Z,93.50
2022-08-26T22:16:24.821Z,93.50
2022-08-26T22:18:53.292Z,93.30
2022-08-26T22:21:25.933Z,93.40
2022-08-26T22:23:57.953Z,92.90
2022-08-26T22:26:27.485Z,93.20
2022-08-26T22:28:58.817Z,93.40
2022-08-26T22:31:37.139Z,93.50
2022-08-26T22:34:07.051Z,93.90
2022-08-26T22:36:33.886Z,94.10
2022-08-26T22:39:01.155Z,93.70
2022-08-26T22:41:27.905Z,93.90
2022-08-26T22:43:54.782Z,93.90
2022-08-26T22:46:25.875Z,93.70
2022-08-26T22:48:53.774Z,93.50
2022-08-26T22:51:23.019Z,94.30
2022-08-26T22:53:49.891Z,94.50
2022-08-26T22:56:18.953Z,94.50
2022-08-26T22:58:45.687Z,94.20
2022-08-26T23:01:13.011Z,94.70
2022-08-26T23:03:39.905Z,94.60
2022-08-26T23:06:10.083Z,94.60
2022-08-26T23:08:38.366Z,94.50
2022-08-26T23:11:09.707Z,94.40
2022-08-26T23:13:36.493Z,94.30
2022-08-26T23:16:06.190Z,94.00
2022-08-26T23:18:33.197Z,93.90
2022-08-26T23:20:59.963Z,93.70
2022-08-26T23:23:27.625Z,93.50
2022-08-26T23:25:54.983Z,93.50
2022-08-26T23:28:22.985Z,93.60
2022-08-26T23:30:50.363Z,93.50
2022-08-26T23:33:17.179Z,93.50
2022-08-26T23:35:44.001Z,93.50
2022-08-26T23:38:13.972Z,93.40
2022-08-26T23:40:41.475Z,93.20
2022-08-26T23:43:11.449Z,92.70
2022-08-26T23:45:38.936Z,93.00
2022-08-26T23:48:06.532Z,92.70
2022-08-26T23:50:52.275Z,93.00
2022-08-26T23:53:22.147Z,93.20
2022-08-26T23:55:53.078Z,93.20
2022-08-26T23:58:21.084Z,93.20
